Time;durP1;ratioP1;P1;durP2;ratioP2;P2;SDS_P1;SDS_P2;PMS_P1;PMS_P2;Temp;Humidity;BMP_temperature;BMP_pressure;BME280_temperature;BME280_humidity;BME280_pressure;Samples;Min_cycle;Max_cycle;Signal;HPM_P1;HPM_P2
2022/06/27 00:01:11;;;;;;;5.15;2.92;;;18.90;99.90;;;;;;5033710;28;20035;-53
2022/06/27 00:03:37;;;;;;;5.82;2.90;;;18.90;99.90;;;;;;5034861;28;20032;-52
2022/06/27 00:06:02;;;;;;;3.70;2.60;;;18.90;99.90;;;;;;5034552;28;20100;-53
2022/06/27 00:08:28;;;;;;;8.77;2.15;;;18.80;99.90;;;;;;5034057;28;20032;-57
2022/06/27 00:10:53;;;;;;;4.50;3.05;;;18.70;99.90;;;;;;5034854;28;20022;-53
2022/06/27 00:13:19;;;;;;;4.30;2.67;;;18.70;99.90;;;;;;5034677;28;20060;-51
2022/06/27 00:15:44;;;;;;;2.95;2.72;;;18.70;99.90;;;;;;5016692;28;20485;-52
2022/06/27 00:18:10;;;;;;;3.83;2.78;;;18.70;99.90;;;;;;5016188;28;20079;-54
2022/06/27 00:20:36;;;;;;;4.30;3.35;;;18.80;99.90;;;;;;5034685;28;20025;-52
2022/06/27 00:23:01;;;;;;;6.57;3.30;;;18.80;99.90;;;;;;5034543;28;20034;-52
2022/06/27 00:25:27;;;;;;;4.75;3.60;;;18.90;99.90;;;;;;5034381;28;20029;-54
2022/06/27 00:27:52;;;;;;;4.13;2.88;;;18.90;99.90;;;;;;5033550;28;20025;-52
2022/06/27 00:30:18;;;;;;;9.00;3.47;;;18.90;99.90;;;;;;5034372;28;20042;-51
2022/06/27 00:32:44;;;;;;;8.02;3.63;;;19.00;99.90;;;;;;5034509;28;20017;-53
2022/06/27 00:35:09;;;;;;;4.38;3.20;;;19.00;99.90;;;;;;5016621;28;20021;-52
2022/06/27 00:37:35;;;;;;;3.92;3.13;;;19.10;99.90;;;;;;5033576;28;20026;-48
2022/06/27 00:40:01;;;;;;;6.28;3.38;;;19.20;99.90;;;;;;5034158;28;20397;-53
2022/06/27 00:42:27;;;;;;;5.15;3.10;;;19.30;99.90;;;;;;5034177;28;20025;-52
2022/06/27 00:44:52;;;;;;;5.50;3.92;;;19.40;99.90;;;;;;5034166;28;20033;-50
2022/06/27 00:47:20;;;;;;;7.22;3.85;;;19.40;99.90;;;;;;5015717;28;20050;-51
2022/06/27 00:49:45;;;;;;;4.88;3.40;;;19.30;99.90;;;;;;5047703;23;20467;-48
2022/06/27 00:52:13;;;;;;;4.40;4.00;;;19.30;99.90;;;;;;4995931;28;20038;-50
2022/06/27 00:54:40;;;;;;;5.60;3.55;;;19.20;99.90;;;;;;4996609;28;20022;-48
2022/06/27 00:57:06;;;;;;;5.68;3.60;;;19.20;99.90;;;;;;5013357;28;20437;-49
2022/06/27 00:59:33;;;;;;;7.05;3.88;;;19.10;99.90;;;;;;5013106;28;20498;-47
2022/06/27 01:01:58;;;;;;;6.15;4.00;;;19.10;99.90;;;;;;4995267;28;20128;-48
2022/06/27 01:04:24;;;;;;;8.93;4.30;;;19.10;99.90;;;;;;4996301;28;20026;-51
2022/06/27 01:06:53;;;;;;;5.65;4.65;;;19.00;99.90;;;;;;5013486;28;20109;-50
2022/06/27 01:09:22;;;;;;;7.70;4.57;;;19.00;99.90;;;;;;5013838;28;20034;-51
2022/06/27 01:11:49;;;;;;;6.78;4.28;;;18.90;99.90;;;;;;5013997;28;20049;-48
2022/06/27 01:14:15;;;;;;;9.27;5.00;;;18.90;99.90;;;;;;5013951;28;20026;-49
2022/06/27 01:16:40;;;;;;;6.28;4.70;;;18.90;99.90;;;;;;5013680;28;20113;-48
2022/06/27 01:19:11;;;;;;;7.15;4.35;;;18.90;99.90;;;;;;4995547;28;20125;-50
2022/06/27 01:21:50;;;;;;;4.82;4.28;;;18.90;99.90;;;;;;5013498;28;20101;-50
2022/06/27 01:24:17;;;;;;;6.63;4.82;;;19.00;99.90;;;;;;5013557;28;20021;-50
2022/06/27 01:26:43;;;;;;;8.10;5.70;;;19.00;99.90;;;;;;5013320;28;20026;-47
2022/06/27 01:29:10;;;;;;;13.02;5.03;;;19.00;99.90;;;;;;5012947;28;20037;-53
2022/06/27 01:31:36;;;;;;;8.63;4.70;;;19.00;99.90;;;;;;5013538;28;20382;-50
2022/06/27 01:34:03;;;;;;;10.95;5.20;;;19.00;99.90;;;;;;5013522;28;20018;-49
2022/06/27 01:36:43;;;;;;;7.68;5.32;;;19.00;99.90;;;;;;4995609;28;20417;-50
2022/06/27 01:39:21;;;;;;;6.85;5.50;;;18.90;99.90;;;;;;5012753;28;20029;-51
2022/06/27 01:41:50;;;;;;;10.77;6.40;;;18.90;99.90;;;;;;5013269;28;20061;-53
2022/06/27 01:44:17;;;;;;;7.65;6.43;;;18.90;99.90;;;;;;4995779;28;20022;-48
2022/06/27 01:46:44;;;;;;;10.40;6.70;;;18.80;99.90;;;;;;4995383;28;20029;-45
2022/06/27 01:49:12;;;;;;;8.90;6.72;;;18.70;99.90;;;;;;5012795;28;20033;-49
2022/06/27 01:51:39;;;;;;;12.95;7.90;;;18.60;99.90;;;;;;5013113;28;20030;-50
2022/06/27 01:54:08;;;;;;;11.52;7.00;;;18.50;99.90;;;;;;5013171;28;20105;-53
2022/06/27 01:56:33;;;;;;;11.18;6.85;;;18.40;99.90;;;;;;5013058;28;20022;-52
2022/06/27 01:58:59;;;;;;;7.07;6.38;;;18.50;99.90;;;;;;5012326;28;20041;-53
2022/06/27 02:01:26;;;;;;;7.43;6.60;;;18.50;99.90;;;;;;5011825;28;20097;-49
2022/06/27 02:03:52;;;;;;;7.68;6.75;;;18.50;99.90;;;;;;4995276;28;20074;-53
2022/06/27 02:06:18;;;;;;;7.22;6.53;;;18.60;99.90;;;;;;5012715;28;20033;-53
2022/06/27 02:08:46;;;;;;;12.75;7.28;;;18.60;99.90;;;;;;5012171;28;20492;-51
2022/06/27 02:11:13;;;;;;;8.82;7.93;;;18.70;99.90;;;;;;5012429;28;20061;-49
2022/06/27 02:13:39;;;;;;;7.13;6.15;;;18.70;99.90;;;;;;5013214;28;20437;-51
2022/06/27 02:16:11;;;;;;;9.68;6.85;;;18.60;99.90;;;;;;5013039;28;20022;-53
2022/06/27 02:18:38;;;;;;;8.80;7.55;;;18.60;99.90;;;;;;5011769;28;20061;-51
2022/06/27 02:21:06;;;;;;;11.90;8.52;;;18.50;99.90;;;;;;5012532;28;20069;-53
2022/06/27 02:23:31;;;;;;;9.32;8.35;;;18.40;99.90;;;;;;5012574;28;20049;-48
2022/06/27 02:25:57;;;;;;;11.43;8.65;;;18.50;99.90;;;;;;5012459;28;20030;-50
2022/06/27 02:28:27;;;;;;;9.63;8.48;;;18.50;99.90;;;;;;5011785;28;20037;-53
2022/06/27 02:30:52;;;;;;;10.43;8.40;;;18.50;99.90;;;;;;5012359;28;20026;-53
2022/06/27 02:33:18;;;;;;;10.63;8.25;;;18.50;99.90;;;;;;5012731;28;20095;-50
2022/06/27 02:35:45;;;;;;;9.20;8.02;;;18.50;99.90;;;;;;5012348;28;20034;-49
2022/06/27 02:38:11;;;;;;;9.98;8.15;;;18.50;99.90;;;;;;5011566;28;20030;-49
2022/06/27 02:40:39;;;;;;;10.32;8.27;;;18.50;99.90;;;;;;5012203;28;20029;-49
2022/06/27 02:43:08;;;;;;;9.02;8.13;;;18.50;99.90;;;;;;5012395;28;20390;-50
2022/06/27 02:45:36;;;;;;;10.50;7.65;;;18.60;99.90;;;;;;5012132;28;20033;-51
2022/06/27 02:48:03;;;;;;;10.13;7.63;;;18.60;99.90;;;;;;5011285;28;20030;-50
2022/06/27 02:50:32;;;;;;;7.97;7.18;;;18.60;99.90;;;;;;5012103;28;20402;-48
2022/06/27 02:53:02;;;;;;;8.50;7.63;;;18.60;99.90;;;;;;5011986;28;20072;-52
2022/06/27 02:55:34;;;;;;;9.32;7.65;;;18.60;99.90;;;;;;5012008;28;20018;-51
2022/06/27 02:58:08;;;;;;;11.82;7.53;;;18.60;99.90;;;;;;5011804;28;20029;-48
2022/06/27 03:00:38;;;;;;;9.57;8.55;;;18.60;99.90;;;;;;5011831;28;20040;-47
2022/06/27 03:03:06;;;;;;;9.25;8.40;;;18.70;99.90;;;;;;5011923;28;20034;-51
2022/06/27 03:05:32;;;;;;;8.73;7.97;;;18.70;99.90;;;;;;5011866;28;20033;-48
2022/06/27 03:07:58;;;;;;;8.43;7.28;;;18.70;99.90;;;;;;5011074;28;20030;-50
2022/06/27 03:10:24;;;;;;;7.75;7.10;;;18.70;99.90;;;;;;5011483;28;20393;-48
2022/06/27 03:12:51;;;;;;;10.65;6.72;;;18.70;99.90;;;;;;5011878;28;20034;-51
2022/06/27 03:15:16;;;;;;;11.10;7.20;;;18.70;99.90;;;;;;5011603;28;20026;-53
2022/06/27 03:17:42;;;;;;;8.27;6.80;;;18.70;99.90;;;;;;5011049;28;20482;-51
2022/06/27 03:20:08;;;;;;;9.70;6.72;;;18.70;99.90;;;;;;5011683;28;20072;-52
2022/06/27 03:22:33;;;;;;;8.68;7.35;;;18.70;99.90;;;;;;5008204;28;20052;-52
2022/06/27 03:24:59;;;;;;;8.05;7.20;;;18.70;99.90;;;;;;5003434;28;20057;-52
2022/06/27 03:27:24;;;;;;;7.25;6.25;;;18.70;99.90;;;;;;5010792;28;20489;-50
2022/06/27 03:29:50;;;;;;;7.63;6.75;;;18.70;99.90;;;;;;5011062;28;20018;-49
2022/06/27 03:32:15;;;;;;;8.05;7.28;;;18.70;99.90;;;;;;5011115;28;20092;-49
2022/06/27 03:34:41;;;;;;;9.57;6.97;;;18.70;99.90;;;;;;5010351;28;20370;-50
2022/06/27 03:37:07;;;;;;;10.88;7.28;;;18.70;99.90;;;;;;5010659;28;20524;-52
2022/06/27 03:39:33;;;;;;;9.82;7.43;;;18.70;99.90;;;;;;5011611;28;20509;-53
2022/06/27 03:41:59;;;;;;;10.25;7.60;;;18.70;99.90;;;;;;5010176;28;20072;-51
2022/06/27 03:44:24;;;;;;;12.18;8.48;;;18.70;99.90;;;;;;5010455;28;20111;-52
2022/06/27 03:46:50;;;;;;;10.38;8.77;;;18.70;99.90;;;;;;5011047;28;20130;-52
2022/06/27 03:51:59;;;;;;;11.65;7.45;;;18.60;99.90;;;;;;5010361;28;20072;-50
2022/06/27 03:54:25;;;;;;;8.02;7.20;;;18.70;99.90;;;;;;5011254;28;20022;-50
2022/06/27 03:56:50;;;;;;;10.48;7.15;;;18.70;99.90;;;;;;5011095;28;20038;-49
2022/06/27 03:59:16;;;;;;;13.50;7.70;;;18.60;99.90;;;;;;5011330;28;20485;-52
2022/06/27 04:01:41;;;;;;;8.20;7.30;;;18.60;99.90;;;;;;5011111;28;20061;-51
2022/06/27 04:04:07;;;;;;;11.60;7.60;;;18.60;99.90;;;;;;5011345;28;20048;-52
2022/06/27 04:06:33;;;;;;;10.93;8.75;;;18.60;99.90;;;;;;5009943;28;20397;-49
2022/06/27 04:08:58;;;;;;;10.00;7.32;;;18.70;99.90;;;;;;5010472;28;20033;-49
2022/06/27 04:11:24;;;;;;;10.50;8.45;;;18.70;99.90;;;;;;5011263;28;20026;-49
2022/06/27 04:13:49;;;;;;;12.77;7.97;;;18.90;99.90;;;;;;5009962;28;20030;-51
2022/06/27 04:16:15;;;;;;;10.50;8.43;;;18.90;99.90;;;;;;5011204;28;20057;-50
2022/06/27 04:18:41;;;;;;;15.77;8.55;;;18.90;99.90;;;;;;5010606;28;20028;-53
2022/06/27 04:21:06;;;;;;;12.85;8.45;;;18.90;99.90;;;;;;5011058;28;20018;-51
2022/06/27 04:23:32;;;;;;;10.40;8.40;;;18.90;99.90;;;;;;5011092;28;20060;-51
2022/06/27 04:25:58;;;;;;;10.82;7.85;;;18.90;99.90;;;;;;5011107;28;20417;-51
2022/06/27 04:28:23;;;;;;;9.60;7.28;;;18.90;99.90;;;;;;5010416;28;20068;-51
2022/06/27 04:30:49;;;;;;;10.00;7.90;;;18.90;99.90;;;;;;5011119;28;20076;-50
2022/06/27 04:33:14;;;;;;;9.15;7.88;;;18.90;99.90;;;;;;5011176;28;20029;-51
2022/06/27 04:35:41;;;;;;;17.50;10.55;;;18.90;99.90;;;;;;5013454;28;20061;-49
2022/06/27 04:38:06;;;;;;;12.25;7.70;;;18.90;99.90;;;;;;5013022;28;20061;-52
2022/06/27 04:40:32;;;;;;;10.45;8.48;;;19.00;99.90;;;;;;5014440;28;20061;-51
2022/06/27 04:42:59;;;;;;;9.57;8.23;;;19.00;99.90;;;;;;5014354;28;20022;-51
2022/06/27 04:45:25;;;;;;;8.88;7.97;;;19.00;99.90;;;;;;5014306;28;20026;-51
2022/06/27 04:47:51;;;;;;;9.90;7.95;;;18.90;99.90;;;;;;5013532;28;20029;-51
2022/06/27 04:50:19;;;;;;;15.02;8.23;;;18.90;99.90;;;;;;5014183;28;20026;-49
2022/06/27 04:52:46;;;;;;;7.68;7.07;;;19.00;99.90;;;;;;5012567;28;20049;-49
2022/06/27 04:55:12;;;;;;;10.13;7.50;;;19.00;99.90;;;;;;5013998;28;20069;-48
2022/06/27 04:57:40;;;;;;;7.60;6.82;;;19.00;99.90;;;;;;5009138;28;20029;-53
2022/06/27 05:00:09;;;;;;;11.30;6.90;;;19.00;99.90;;;;;;5013809;28;20397;-47
2022/06/27 05:02:35;;;;;;;9.63;6.28;;;19.10;99.90;;;;;;5014108;28;20046;-51
2022/06/27 05:05:03;;;;;;;9.32;6.00;;;19.10;99.90;;;;;;5013868;28;20061;-50
2022/06/27 05:07:30;;;;;;;8.93;5.40;;;19.00;99.90;;;;;;5013446;28;20470;-49
2022/06/27 05:09:56;;;;;;;6.28;4.80;;;19.00;99.90;;;;;;5013857;28;20108;-48
2022/06/27 05:12:23;;;;;;;7.18;4.97;;;19.00;99.90;;;;;;5011528;28;20072;-51
2022/06/27 05:14:48;;;;;;;6.40;5.18;;;19.00;99.90;;;;;;5013668;28;20097;-50
2022/06/27 05:17:14;;;;;;;8.85;5.05;;;19.10;99.90;;;;;;4995393;28;20133;-51
2022/06/27 05:19:39;;;;;;;8.07;5.47;;;19.10;99.90;;;;;;5010297;28;20018;-49
2022/06/27 05:22:05;;;;;;;5.95;5.30;;;19.10;99.90;;;;;;5010590;28;20076;-49
2022/06/27 05:24:30;;;;;;;7.60;5.72;;;19.10;99.90;;;;;;5013617;28;20034;-49
2022/06/27 05:26:56;;;;;;;7.78;5.28;;;19.10;99.90;;;;;;5011391;28;20108;-48
2022/06/27 05:29:22;;;;;;;8.93;5.28;;;19.10;99.90;;;;;;5013640;28;20033;-49
2022/06/27 05:31:48;;;;;;;5.78;5.22;;;19.10;99.90;;;;;;5012502;28;20025;-50
2022/06/27 05:34:13;;;;;;;12.10;5.50;;;19.10;99.90;;;;;;5012866;28;20057;-53
2022/06/27 05:36:39;;;;;;;5.50;4.97;;;19.20;99.90;;;;;;5013262;28;20026;-51
2022/06/27 05:39:05;;;;;;;7.93;5.88;;;19.30;99.90;;;;;;5012502;28;20156;-50
2022/06/27 05:41:31;;;;;;;7.13;5.43;;;19.30;99.90;;;;;;5012566;28;20521;-49
2022/06/27 05:43:59;;;;;;;8.85;5.43;;;19.40;99.90;;;;;;5012970;28;20028;-53
2022/06/27 05:46:25;;;;;;;9.38;5.40;;;19.40;99.90;;;;;;5012246;28;22029;-48
2022/06/27 05:48:51;;;;;;;10.82;5.03;;;19.30;99.90;;;;;;5010777;28;20100;-49
2022/06/27 05:51:19;;;;;;;8.70;4.20;;;19.30;99.90;;;;;;5012595;28;20083;-50
2022/06/27 05:53:45;;;;;;;5.20;4.63;;;19.30;99.90;;;;;;5012277;28;20474;-50
2022/06/27 05:56:11;;;;;;;5.95;4.85;;;19.30;99.90;;;;;;5013144;28;20030;-53
2022/06/27 05:58:38;;;;;;;4.40;4.00;;;19.50;99.90;;;;;;5011943;28;20445;-54
2022/06/27 06:01:04;;;;;;;4.53;4.22;;;19.80;99.90;;;;;;5012287;28;20021;-50
2022/06/27 06:03:31;;;;;;;8.68;3.70;;;20.00;99.90;;;;;;5012896;28;20041;-47
2022/06/27 06:05:57;;;;;;;5.82;4.95;;;20.10;99.90;;;;;;5012195;28;20105;-48
2022/06/27 06:08:23;;;;;;;5.53;4.25;;;20.20;99.90;;;;;;5011787;28;20081;-51
2022/06/27 06:10:49;;;;;;;7.35;4.43;;;20.10;99.90;;;;;;5012954;28;20512;-51
2022/06/27 06:13:14;;;;;;;5.25;4.30;;;20.10;99.90;;;;;;5012543;28;20022;-49
2022/06/27 06:15:40;;;;;;;9.05;4.43;;;19.90;99.90;;;;;;5012528;28;20152;-49
2022/06/27 06:18:07;;;;;;;4.28;3.95;;;19.80;99.90;;;;;;5011809;28;20025;-52
2022/06/27 06:20:33;;;;;;;4.68;4.28;;;19.70;99.90;;;;;;5010952;28;20025;-51
2022/06/27 06:22:59;;;;;;;6.10;4.75;;;19.70;99.90;;;;;;5012435;28;20033;-50
2022/06/27 06:25:26;;;;;;;9.48;4.75;;;19.70;99.90;;;;;;5012418;28;20021;-49
2022/06/27 06:27:54;;;;;;;7.03;4.00;;;19.70;99.90;;;;;;5011589;28;20022;-51
2022/06/27 06:30:21;;;;;;;4.90;4.47;;;19.70;99.90;;;;;;5012327;28;20072;-53
2022/06/27 06:32:47;;;;;;;3.97;3.67;;;19.70;99.90;;;;;;5012401;28;20025;-47
2022/06/27 06:35:13;;;;;;;6.97;4.50;;;19.70;99.90;;;;;;5012371;28;20430;-53
2022/06/27 06:37:39;;;;;;;4.70;4.05;;;19.80;99.90;;;;;;5011580;28;20033;-54
2022/06/27 06:40:06;;;;;;;7.72;4.53;;;19.90;99.90;;;;;;5012210;28;20095;-53
2022/06/27 06:42:32;;;;;;;6.88;4.75;;;19.90;99.90;;;;;;5012176;28;20026;-48
2022/06/27 06:44:58;;;;;;;4.93;4.55;;;20.00;99.90;;;;;;5012180;28;20030;-49
2022/06/27 06:47:26;;;;;;;10.10;4.60;;;20.10;99.90;;;;;;5011277;28;20029;-52
2022/06/27 06:49:51;;;;;;;6.97;4.50;;;20.10;99.90;;;;;;5011918;28;20018;-52
2022/06/27 06:52:18;;;;;;;6.22;3.60;;;20.20;99.90;;;;;;5062924;23;20041;-51
2022/06/27 06:54:45;;;;;;;9.27;4.28;;;20.30;99.90;;;;;;5048293;28;20032;-48
2022/06/27 06:57:10;;;;;;;7.20;3.72;;;20.30;99.90;;;;;;5050144;28;20047;-49
2022/06/27 06:59:37;;;;;;;4.63;2.67;;;20.50;99.90;;;;;;5051332;28;20026;-52
2022/06/27 07:02:04;;;;;;;4.10;3.80;;;20.60;99.90;;;;;;5051718;28;20022;-49
2022/06/27 07:04:30;;;;;;;6.93;3.55;;;20.70;99.90;;;;;;5053236;28;20040;-50
2022/06/27 07:06:56;;;;;;;4.38;3.40;;;20.80;99.90;;;;;;5047123;28;20030;-51
2022/06/27 07:09:22;;;;;;;9.25;3.47;;;21.10;99.90;;;;;;5048955;28;20024;-46
2022/06/27 07:11:47;;;;;;;5.82;3.22;;;21.40;99.90;;;;;;5047742;28;20022;-52
2022/06/27 07:14:15;;;;;;;7.25;3.00;;;21.60;99.90;;;;;;5046564;28;20481;-51
2022/06/27 07:16:42;;;;;;;4.32;2.45;;;21.60;99.90;;;;;;5044396;28;20056;-52
2022/06/27 07:19:08;;;;;;;6.93;2.90;;;21.60;99.90;;;;;;5026433;28;20032;-52
2022/06/27 07:21:35;;;;;;;4.60;3.03;;;21.50;99.90;;;;;;5048404;28;20043;-53
2022/06/27 07:24:01;;;;;;;4.60;3.05;;;21.50;99.90;;;;;;5030225;28;20037;-51
2022/06/27 07:26:29;;;;;;;5.45;3.08;;;21.40;99.90;;;;;;5047344;28;20059;-51
2022/06/27 07:28:55;;;;;;;3.85;2.65;;;21.40;99.90;;;;;;5046911;28;20044;-51
2022/06/27 07:31:21;;;;;;;4.57;2.47;;;21.20;99.90;;;;;;5044480;28;20076;-54
2022/06/27 07:33:51;;;;;;;2.97;2.30;;;21.10;99.90;;;;;;5042837;28;20021;-54
2022/06/27 07:36:19;;;;;;;7.00;2.67;;;20.90;99.90;;;;;;5042379;28;20397;-56
2022/06/27 07:38:46;;;;;;;6.13;2.40;;;20.80;99.90;;;;;;5041563;28;20028;-51
2022/06/27 07:41:13;;;;;;;6.32;2.10;;;20.70;99.90;;;;;;5042424;28;20029;-53
2022/06/27 07:43:40;;;;;;;4.35;2.90;;;20.70;99.90;;;;;;5043496;28;20386;-53
2022/06/27 07:46:06;;;;;;;4.03;2.28;;;20.70;99.90;;;;;;5042654;28;20029;-50
2022/06/27 07:48:34;;;;;;;2.28;1.95;;;20.80;99.90;;;;;;5039716;28;20128;-55
2022/06/27 07:51:00;;;;;;;2.78;2.45;;;20.80;99.90;;;;;;5037956;28;20038;-55
2022/06/27 07:53:26;;;;;;;2.72;2.35;;;20.80;99.90;;;;;;5034869;28;20045;-52
2022/06/27 07:55:54;;;;;;;6.35;2.38;;;20.80;99.90;;;;;;5019825;28;20022;-53
2022/06/27 07:58:35;;;;;;;3.55;2.40;;;20.70;99.90;;;;;;5029587;28;20036;-53
2022/06/27 08:01:04;;;;;;;2.30;2.00;;;20.70;99.90;;;;;;5029982;28;20044;-50
2022/06/27 08:03:36;;;;;;;7.13;2.03;;;20.80;99.90;;;;;;5007102;28;20026;-50
2022/06/27 08:06:11;;;;;;;2.38;2.28;;;21.00;99.90;;;;;;5035708;28;20331;-48
2022/06/27 08:08:39;;;;;;;3.22;1.95;;;21.40;99.90;;;;;;5031977;28;20034;-53
2022/06/27 08:11:07;;;;;;;2.58;1.80;;;21.90;99.90;;;;;;5037294;28;20025;-55
2022/06/27 08:13:33;;;;;;;2.25;1.98;;;22.20;99.90;;;;;;5034897;28;20116;-49
2022/06/27 08:15:59;;;;;;;5.13;1.95;;;22.40;99.90;;;;;;5016647;28;20025;-52
2022/06/27 08:18:26;;;;;;;3.47;2.00;;;22.60;99.90;;;;;;5029561;28;20029;-52
2022/06/27 08:20:52;;;;;;;2.20;1.90;;;22.50;99.90;;;;;;5049855;28;20027;-47
2022/06/27 08:23:18;;;;;;;2.42;2.20;;;22.30;99.90;;;;;;5053314;28;20026;-52
2022/06/27 08:25:46;;;;;;;2.15;1.98;;;22.10;99.90;;;;;;5025206;28;20018;-59
2022/06/27 08:28:13;;;;;;;2.00;1.80;;;22.00;99.90;;;;;;5024222;28;20116;-50
2022/06/27 08:30:41;;;;;;;2.22;2.13;;;21.90;99.90;;;;;;5039513;28;20059;-56
2022/06/27 08:33:08;;;;;;;3.40;2.60;;;22.00;99.90;;;;;;5048469;28;20159;-50
2022/06/27 08:35:35;;;;;;;22.13;19.02;;;22.20;99.90;;;;;;5043696;28;20025;-52
2022/06/27 08:38:01;;;;;;;10.55;8.00;;;22.40;99.90;;;;;;5050354;28;20109;-47
2022/06/27 08:40:27;;;;;;;3.15;2.00;;;22.40;99.90;;;;;;5051498;28;20026;-52
2022/06/27 08:42:55;;;;;;;2.03;1.90;;;22.40;99.90;;;;;;5050079;28;20025;-49
2022/06/27 08:45:23;;;;;;;3.40;2.15;;;22.40;99.90;;;;;;5043538;28;20040;-50
2022/06/27 08:47:50;;;;;;;4.68;2.33;;;22.20;99.90;;;;;;5043936;28;20029;-53
2022/06/27 08:50:17;;;;;;;1.88;1.70;;;22.00;99.90;;;;;;5030872;28;20021;-51
2022/06/27 08:52:45;;;;;;;2.45;2.00;;;21.90;99.90;;;;;;5050306;28;20025;-52
2022/06/27 08:55:12;;;;;;;2.63;2.00;;;21.90;99.90;;;;;;5051093;28;20020;-50
2022/06/27 08:57:41;;;;;;;5.05;2.33;;;22.10;99.90;;;;;;5048597;28;20481;-50
2022/06/27 09:00:09;;;;;;;2.67;1.75;;;22.30;99.90;;;;;;5049696;28;20026;-50
2022/06/27 09:02:45;;;;;;;5.40;2.47;;;22.90;99.90;;;;;;5049922;28;20052;-48
2022/06/27 09:05:19;;;;;;;3.35;3.05;;;23.50;99.90;;;;;;5051581;28;20033;-55
2022/06/27 09:07:48;;;;;;;3.40;1.95;;;23.90;99.90;;;;;;5051834;28;20060;-49
2022/06/27 09:10:36;;;;;;;1.90;1.80;;;24.60;99.90;;;;;;5051755;28;20023;-48
2022/06/27 09:13:08;;;;;;;7.82;1.58;;;25.00;99.90;;;;;;5048496;28;20081;-51
2022/06/27 09:15:49;;;;;;;2.35;1.38;;;25.20;99.90;;;;;;5048382;28;20022;-52
2022/06/27 09:18:17;;;;;;;4.28;1.67;;;25.10;99.90;;;;;;5048374;28;20056;-51
2022/06/27 09:20:49;;;;;;;2.13;1.95;;;25.20;99.90;;;;;;5031894;28;20028;-51
2022/06/27 09:23:51;;;;;;;1.77;1.55;;;25.60;99.90;;;;;;5050013;28;20025;-49
2022/06/27 09:26:25;;;;;;;4.10;1.67;;;25.90;99.90;;;;;;5052234;28;20037;-49
2022/06/27 09:28:53;;;;;;;1.50;1.40;;;25.90;99.90;;;;;;5050913;28;20014;-49
2022/06/27 09:31:25;;;;;;;1.67;1.58;;;25.80;99.90;;;;;;5050667;28;20025;-49
2022/06/27 09:34:08;;;;;;;1.88;1.77;;;25.60;99.90;;;;;;5050158;28;20017;-48
2022/06/27 09:36:34;;;;;;;2.58;1.83;;;25.80;99.90;;;;;;5051303;28;20029;-50
2022/06/27 09:39:02;;;;;;;2.00;1.65;;;26.00;99.90;;;;;;5048569;28;20032;-52
2022/06/27 09:41:32;;;;;;;1.60;1.55;;;26.00;99.90;;;;;;5048112;28;20477;-48
2022/06/27 09:44:04;;;;;;;2.35;1.58;;;26.30;99.90;;;;;;5030391;28;20025;-50
2022/06/27 09:46:36;;;;;;;3.70;1.70;;;26.10;99.90;;;;;;5047282;28;20032;-52
2022/06/27 09:49:03;;;;;;;1.83;1.73;;;26.30;99.90;;;;;;5047143;28;20018;-51
2022/06/27 09:51:34;;;;;;;1.70;1.60;;;26.30;99.90;;;;;;5048276;28;20032;-51
2022/06/27 09:54:08;;;;;;;4.18;2.55;;;26.50;99.90;;;;;;5033482;28;20053;-51
2022/06/27 09:56:39;;;;;;;1.70;1.60;;;26.40;99.90;;;;;;5048118;28;20069;-50
2022/06/27 09:59:08;;;;;;;2.45;2.00;;;26.10;99.90;;;;;;5047045;28;20032;-49
2022/06/27 10:01:35;;;;;;;2.35;1.77;;;25.70;99.90;;;;;;5048900;28;20108;-51
2022/06/27 10:04:03;;;;;;;2.40;2.20;;;25.50;99.90;;;;;;5048400;28;20106;-53
2022/06/27 10:06:29;;;;;;;8.05;5.75;;;25.30;99.90;;;;;;5045412;28;20082;-53
2022/06/27 10:08:55;;;;;;;6.85;5.60;;;25.20;99.90;;;;;;5038673;28;20021;-50
2022/06/27 10:11:21;;;;;;;8.13;2.53;;;25.20;99.90;;;;;;5044498;28;20028;-44
2022/06/27 10:14:11;;;;;;;2.55;1.85;;;25.20;99.90;;;;;;5047133;28;20033;-50
2022/06/27 10:16:50;;;;;;;1.95;1.85;;;25.20;99.90;;;;;;5029329;28;20088;-45
2022/06/27 10:19:15;;;;;;;1.85;1.75;;;25.20;99.90;;;;;;5033631;28;20377;-48
2022/06/27 10:21:44;;;;;;;1.85;1.70;;;25.10;99.90;;;;;;5051809;28;20029;-54
2022/06/27 10:24:21;;;;;;;5.75;2.20;;;25.00;99.90;;;;;;5050181;28;20026;-52
2022/06/27 10:26:49;;;;;;;6.45;2.33;;;24.90;99.90;;;;;;5045967;28;20420;-53
2022/06/27 10:29:27;;;;;;;3.22;1.95;;;24.80;99.90;;;;;;5044173;28;20032;-51
2022/06/27 10:31:53;;;;;;;3.47;2.22;;;24.50;99.90;;;;;;5045894;28;20018;-50
2022/06/27 10:34:38;;;;;;;6.32;2.83;;;24.40;99.90;;;;;;5045392;28;20125;-51
2022/06/27 10:37:19;;;;;;;4.63;2.00;;;24.20;99.90;;;;;;5044668;28;20025;-53
2022/06/27 10:39:45;;;;;;;5.05;2.30;;;24.20;99.90;;;;;;5045807;28;20032;-51
2022/06/27 10:42:49;;;;;;;5.53;2.60;;;24.20;99.90;;;;;;5033228;28;20025;-49
2022/06/27 10:45:20;;;;;;;4.97;2.65;;;24.10;99.90;;;;;;5034256;28;20089;-48
2022/06/27 10:47:57;;;;;;;3.10;2.90;;;23.80;99.90;;;;;;5029519;28;20029;-50
2022/06/27 10:50:26;;;;;;;7.40;3.30;;;23.60;99.90;;;;;;5039834;28;20035;-50
2022/06/27 10:53:25;;;;;;;2.88;2.67;;;23.50;99.90;;;;;;5041698;28;20006;-47
2022/06/27 10:55:51;;;;;;;5.22;2.90;;;23.40;99.90;;;;;;5017353;28;20034;-52
2022/06/27 10:58:35;;;;;;;2.95;2.70;;;23.30;99.90;;;;;;5021867;28;20025;-49
2022/06/27 11:01:15;;;;;;;3.25;2.47;;;23.20;99.90;;;;;;5030190;28;20489;-50
2022/06/27 11:03:40;;;;;;;2.00;1.90;;;23.20;99.90;;;;;;5019237;28;20037;-49
2022/06/27 11:06:08;;;;;;;2.10;1.90;;;23.20;99.90;;;;;;5016492;28;20033;-46
2022/06/27 11:08:36;;;;;;;2.05;1.80;;;23.20;99.90;;;;;;5017078;28;20028;-52
2022/06/27 11:11:02;;;;;;;2.20;2.10;;;23.20;99.90;;;;;;5018146;28;20022;-45
2022/06/27 11:13:35;;;;;;;1.40;1.40;;;23.30;99.90;;;;;;5012093;28;20124;-45
2022/06/27 11:16:00;;;;;;;4.93;1.90;;;23.30;99.90;;;;;;5031435;28;20025;-47
2022/06/27 11:18:26;;;;;;;2.00;1.90;;;23.30;99.90;;;;;;5045621;28;20518;-47
2022/06/27 11:20:56;;;;;;;2.03;1.92;;;23.30;99.90;;;;;;5031105;28;20179;-47
2022/06/27 11:23:22;;;;;;;15.38;10.68;;;23.40;99.90;;;;;;5031437;28;20167;-49
2022/06/27 11:25:47;;;;;;;15.77;12.65;;;23.50;99.90;;;;;;5029939;28;20068;-50
2022/06/27 11:33:46;;;;;;;3.47;1.80;;;23.80;99.90;;;;;;5011779;28;20598;-45
2022/06/27 11:36:13;;;;;;;1.55;1.45;;;23.80;99.90;;;;;;5011178;28;20064;-51
2022/06/27 11:38:47;;;;;;;1.50;1.40;;;23.80;99.90;;;;;;4993066;28;20084;-47
2022/06/27 11:41:14;;;;;;;3.88;1.35;;;23.80;99.90;;;;;;4993550;28;20060;-50
2022/06/27 11:43:57;;;;;;;1.88;1.42;;;23.90;99.90;;;;;;5012933;28;20559;-51
2022/06/27 11:46:32;;;;;;;5.50;1.85;;;24.00;99.90;;;;;;5015478;28;20524;-51
2022/06/27 11:48:59;;;;;;;1.58;1.23;;;24.00;99.90;;;;;;5014825;28;20440;-46
2022/06/27 11:51:28;;;;;;;2.50;2.05;;;24.00;99.90;;;;;;5015065;28;20080;-52
2022/06/27 11:54:01;;;;;;;1.80;1.70;;;23.90;99.90;;;;;;5015044;28;20021;-48
2022/06/27 11:56:28;;;;;;;1.67;1.55;;;23.90;99.90;;;;;;5015056;28;20029;-51
2022/06/27 11:58:58;;;;;;;1.83;1.73;;;23.90;99.90;;;;;;5014666;28;20048;-46
2022/06/27 12:01:24;;;;;;;2.58;1.45;;;23.90;99.90;;;;;;5015251;28;20066;-48
2022/06/27 12:04:11;;;;;;;2.25;1.30;;;23.90;99.90;;;;;;5028995;28;20409;-46
2022/06/27 12:06:42;;;;;;;1.50;1.40;;;23.90;99.90;;;;;;5023920;28;20713;-49
2022/06/27 12:09:07;;;;;;;2.15;1.63;;;23.90;99.90;;;;;;5033939;28;20029;-51
2022/06/27 12:11:34;;;;;;;1.23;1.13;;;23.90;99.90;;;;;;5022441;28;20513;-46
2022/06/27 12:14:01;;;;;;;5.63;1.40;;;23.90;99.90;;;;;;5033892;28;20032;-50
2022/06/27 12:16:27;;;;;;;1.50;1.50;;;23.90;99.90;;;;;;5023339;28;20493;-51
2022/06/27 12:18:53;;;;;;;1.63;1.52;;;24.00;99.90;;;;;;5033587;28;20024;-46
2022/06/27 12:21:20;;;;;;;2.88;1.30;;;24.00;99.90;;;;;;5019157;28;20025;-51
2022/06/27 12:23:46;;;;;;;2.92;1.40;;;24.00;99.90;;;;;;5040471;28;21350;-47
2022/06/27 12:26:12;;;;;;;3.60;1.40;;;24.00;99.90;;;;;;5026905;28;20392;-46
2022/06/27 12:28:40;;;;;;;2.63;1.60;;;23.90;99.90;;;;;;5033325;28;20021;-46
2022/06/27 12:31:05;;;;;;;1.48;1.40;;;23.70;99.90;;;;;;5014986;28;20060;-46
2022/06/27 12:33:31;;;;;;;1.25;1.23;;;23.60;99.90;;;;;;5003276;28;20388;-50
2022/06/27 12:35:56;;;;;;;3.75;1.48;;;23.70;99.90;;;;;;5034572;28;20026;-47
2022/06/27 12:38:22;;;;;;;7.18;1.50;;;23.60;99.90;;;;;;5033687;28;20076;-47
2022/06/27 12:40:48;;;;;;;3.25;1.70;;;23.70;99.90;;;;;;5034140;28;20037;-49
2022/06/27 12:43:14;;;;;;;2.53;2.40;;;23.70;99.90;;;;;;5034256;28;20065;-48
2022/06/27 12:45:40;;;;;;;1.30;1.30;;;23.70;99.90;;;;;;5028089;28;20021;-47
2022/06/27 12:48:08;;;;;;;4.10;3.72;;;23.70;99.90;;;;;;5029907;28;20095;-48
2022/06/27 12:50:34;;;;;;;3.10;2.58;;;23.80;99.90;;;;;;5028512;28;20026;-53
2022/06/27 12:53:00;;;;;;;17.25;11.07;;;23.80;99.90;;;;;;5057515;23;20124;-51
2022/06/27 12:55:26;;;;;;;2.13;1.92;;;24.00;99.90;;;;;;5031423;28;20053;-51
2022/06/27 12:57:51;;;;;;;2.20;1.60;;;24.10;99.90;;;;;;5024240;28;20573;-51